Дата Пункты Температура Давл., мм. Влажн., % Ветер Погодные явления
Воздуха Воды Направл. Скорость
16.10.14 02:00 Одесса 21.0 16.0 751 65 Пн-З 2 15 часов
16.10.14 11:00 Одесса 21.0 15.0 751 78 Пд-З 3 12 часов
16.10.14 08:00 Одесса 18.0 15.0 752 92 Пд-З 3 09 часов
16.10.14 05:00 Одесса 17.0 15.0 752 98 Пд 3 06 часов
16.10.14 02:00 Одесса 17.0 15.0 753 98 Пд 4 03 часа
15.10.14 08:00 Одесса 17.0 15.0 755 98 Пд 2 21 час
15.10.14 05:00 Одесса 17.0 15.0 755 88 Пд-З 3 18 часов
15.10.14 02:00 Одесса 19.0 15.0 756 81 Пд 3 15 часов
15.10.14 11:00 Одесса 19.0 15.0 756 81 Пд 3 12 часов
15.10.14 08:00 Одесса 16.0 15.0 757 97 Пд-З 2 09 часов
15.10.14 05:00 Одесса 16.0 15.0 757 98 Пд-З 3 06 часов
15.10.14 02:00 Одесса 16.0 15.0 757 98 Пд-З 2 03 часа
14.10.14 08:00 Одесса 15.0 15.0 757 96 Пд-З 2 21 час
14.10.14 05:00 Одесса 16.0 15.0 758 85 Пд 1 18 часов
14.10.14 02:00 Одесса 17.0 15.0 758 88 Пд-С 3 15 часов
14.10.14 11:00 Одесса 15.0 14.0 759 78 С 1 12 часов
14.10.14 08:00 Одесса 12.0 14.0 759 89 Пн-З 1 09 часов
14.10.14 05:00 Одесса 9.0 14.0 759 95 Пн-З 1 06 часов
14.10.14 02:00 Одесса 10.0 14.0 759 90 Пн 0 03 часа
13.10.14 08:00 Одесса 12.0 15.0 759 90 З 2 21 час
Количество строк
431 432 433 434 435 436 437 438 439 440
Page 436 of 448